sensor_id;sensor_type;location;lat;lon;timestamp;P1;durP1;ratioP1;P2;durP2;ratioP2
14760;SDS011;7472;45.396;5.272;2022-09-02T00:00:34;5.07;;;2.95;;
14760;SDS011;7472;45.396;5.272;2022-09-02T00:03:02;5.20;;;3.08;;
14760;SDS011;7472;45.396;5.272;2022-09-02T00:05:29;5.13;;;2.88;;
14760;SDS011;7472;45.396;5.272;2022-09-02T00:07:58;3.28;;;2.97;;
14760;SDS011;7472;45.396;5.272;2022-09-02T00:10:26;3.80;;;3.50;;
14760;SDS011;7472;45.396;5.272;2022-09-02T00:12:53;3.28;;;2.97;;
14760;SDS011;7472;45.396;5.272;2022-09-02T00:15:21;3.22;;;3.03;;
14760;SDS011;7472;45.396;5.272;2022-09-02T00:17:48;2.90;;;2.60;;
14760;SDS011;7472;45.396;5.272;2022-09-02T00:20:16;3.78;;;3.38;;
14760;SDS011;7472;45.396;5.272;2022-09-02T00:22:44;3.70;;;2.42;;
14760;SDS011;7472;45.396;5.272;2022-09-02T00:25:13;4.35;;;2.88;;
14760;SDS011;7472;45.396;5.272;2022-09-02T00:27:40;3.05;;;2.85;;
14760;SDS011;7472;45.396;5.272;2022-09-02T00:30:08;3.88;;;3.13;;
14760;SDS011;7472;45.396;5.272;2022-09-02T00:32:36;4.07;;;3.20;;
14760;SDS011;7472;45.396;5.272;2022-09-02T00:35:03;6.45;;;2.92;;
14760;SDS011;7472;45.396;5.272;2022-09-02T00:37:31;3.75;;;3.42;;
14760;SDS011;7472;45.396;5.272;2022-09-02T00:39:58;4.07;;;3.75;;
14760;SDS011;7472;45.396;5.272;2022-09-02T00:42:27;2.95;;;2.75;;
14760;SDS011;7472;45.396;5.272;2022-09-02T00:44:54;3.45;;;2.78;;
14760;SDS011;7472;45.396;5.272;2022-09-02T00:47:22;2.70;;;2.50;;
14760;SDS011;7472;45.396;5.272;2022-09-02T00:49:50;3.72;;;3.40;;
14760;SDS011;7472;45.396;5.272;2022-09-02T00:52:20;6.18;;;3.47;;
14760;SDS011;7472;45.396;5.272;2022-09-02T00:54:49;5.80;;;3.97;;
14760;SDS011;7472;45.396;5.272;2022-09-02T00:57:18;4.05;;;3.67;;
14760;SDS011;7472;45.396;5.272;2022-09-02T00:59:49;4.63;;;4.22;;
14760;SDS011;7472;45.396;5.272;2022-09-02T01:02:20;4.93;;;3.55;;
14760;SDS011;7472;45.396;5.272;2022-09-02T01:04:49;4.00;;;3.70;;
14760;SDS011;7472;45.396;5.272;2022-09-02T01:07:21;4.22;;;3.83;;
14760;SDS011;7472;45.396;5.272;2022-09-02T01:09:48;6.93;;;3.40;;
14760;SDS011;7472;45.396;5.272;2022-09-02T01:12:16;3.42;;;3.13;;
14760;SDS011;7472;45.396;5.272;2022-09-02T01:14:43;3.60;;;3.30;;
14760;SDS011;7472;45.396;5.272;2022-09-02T01:17:12;3.03;;;2.83;;
14760;SDS011;7472;45.396;5.272;2022-09-02T01:19:42;3.40;;;3.10;;
14760;SDS011;7472;45.396;5.272;2022-09-02T01:22:16;2.92;;;2.72;;
14760;SDS011;7472;45.396;5.272;2022-09-02T01:24:44;3.42;;;3.22;;
14760;SDS011;7472;45.396;5.272;2022-09-02T01:27:13;3.30;;;2.85;;
14760;SDS011;7472;45.396;5.272;2022-09-02T01:29:40;6.43;;;3.35;;
14760;SDS011;7472;45.396;5.272;2022-09-02T01:32:08;7.82;;;3.30;;
14760;SDS011;7472;45.396;5.272;2022-09-02T01:34:35;6.68;;;3.22;;
14760;SDS011;7472;45.396;5.272;2022-09-02T01:37:02;3.25;;;3.05;;
14760;SDS011;7472;45.396;5.272;2022-09-02T01:39:32;3.58;;;3.20;;
14760;SDS011;7472;45.396;5.272;2022-09-02T01:42:00;6.95;;;3.58;;
14760;SDS011;7472;45.396;5.272;2022-09-02T01:44:27;3.25;;;3.03;;
14760;SDS011;7472;45.396;5.272;2022-09-02T01:46:54;4.65;;;3.00;;
14760;SDS011;7472;45.396;5.272;2022-09-02T01:49:22;3.72;;;3.15;;
14760;SDS011;7472;45.396;5.272;2022-09-02T01:51:52;4.47;;;3.30;;
14760;SDS011;7472;45.396;5.272;2022-09-02T01:54:20;5.20;;;2.90;;
14760;SDS011;7472;45.396;5.272;2022-09-02T01:56:48;3.40;;;3.08;;
14760;SDS011;7472;45.396;5.272;2022-09-02T01:59:16;6.13;;;3.38;;
14760;SDS011;7472;45.396;5.272;2022-09-02T02:01:45;3.30;;;3.10;;
14760;SDS011;7472;45.396;5.272;2022-09-02T02:04:12;3.65;;;3.25;;
14760;SDS011;7472;45.396;5.272;2022-09-02T02:06:40;3.25;;;2.97;;
14760;SDS011;7472;45.396;5.272;2022-09-02T02:09:07;3.80;;;3.42;;
14760;SDS011;7472;45.396;5.272;2022-09-02T02:11:35;4.00;;;3.17;;
14760;SDS011;7472;45.396;5.272;2022-09-02T02:14:04;3.15;;;2.95;;
14760;SDS011;7472;45.396;5.272;2022-09-02T02:16:31;3.65;;;3.35;;
14760;SDS011;7472;45.396;5.272;2022-09-02T02:18:59;4.35;;;3.35;;
14760;SDS011;7472;45.396;5.272;2022-09-02T02:21:26;4.55;;;3.20;;
14760;SDS011;7472;45.396;5.272;2022-09-02T02:23:54;4.10;;;2.88;;
14760;SDS011;7472;45.396;5.272;2022-09-02T02:26:21;3.22;;;2.90;;
14760;SDS011;7472;45.396;5.272;2022-09-02T02:28:48;5.32;;;3.50;;
14760;SDS011;7472;45.396;5.272;2022-09-02T02:31:17;4.97;;;3.50;;
14760;SDS011;7472;45.396;5.272;2022-09-02T02:33:45;3.58;;;3.17;;
14760;SDS011;7472;45.396;5.272;2022-09-02T02:36:12;3.60;;;3.13;;
14760;SDS011;7472;45.396;5.272;2022-09-02T02:38:40;4.30;;;3.60;;
14760;SDS011;7472;45.396;5.272;2022-09-02T02:41:08;4.82;;;3.17;;
14760;SDS011;7472;45.396;5.272;2022-09-02T02:43:35;4.32;;;3.92;;
14760;SDS011;7472;45.396;5.272;2022-09-02T02:46:03;3.75;;;3.20;;
14760;SDS011;7472;45.396;5.272;2022-09-02T02:48:33;8.23;;;3.28;;
14760;SDS011;7472;45.396;5.272;2022-09-02T02:51:01;3.13;;;2.58;;
14760;SDS011;7472;45.396;5.272;2022-09-02T02:53:28;5.85;;;3.40;;
14760;SDS011;7472;45.396;5.272;2022-09-02T02:55:56;3.58;;;3.30;;
14760;SDS011;7472;45.396;5.272;2022-09-02T02:58:23;5.40;;;3.65;;
14760;SDS011;7472;45.396;5.272;2022-09-02T03:00:51;5.18;;;3.60;;
14760;SDS011;7472;45.396;5.272;2022-09-02T03:03:18;4.00;;;3.65;;
14760;SDS011;7472;45.396;5.272;2022-09-02T03:05:48;6.35;;;3.35;;
14760;SDS011;7472;45.396;5.272;2022-09-02T03:08:16;4.63;;;3.72;;
14760;SDS011;7472;45.396;5.272;2022-09-02T03:10:45;3.40;;;3.10;;
14760;SDS011;7472;45.396;5.272;2022-09-02T03:13:13;5.35;;;3.90;;
14760;SDS011;7472;45.396;5.272;2022-09-02T03:15:41;4.97;;;4.07;;
14760;SDS011;7472;45.396;5.272;2022-09-02T03:18:08;3.28;;;3.08;;
14760;SDS011;7472;45.396;5.272;2022-09-02T03:20:35;4.07;;;3.42;;
14760;SDS011;7472;45.396;5.272;2022-09-02T03:23:04;3.70;;;3.40;;
14760;SDS011;7472;45.396;5.272;2022-09-02T03:25:32;4.10;;;3.70;;
14760;SDS011;7472;45.396;5.272;2022-09-02T03:28:00;3.92;;;3.58;;
14760;SDS011;7472;45.396;5.272;2022-09-02T03:30:28;4.53;;;3.42;;
14760;SDS011;7472;45.396;5.272;2022-09-02T03:32:56;4.72;;;3.05;;
14760;SDS011;7472;45.396;5.272;2022-09-02T03:35:24;5.10;;;3.80;;
14760;SDS011;7472;45.396;5.272;2022-09-02T03:37:52;3.55;;;3.25;;
14760;SDS011;7472;45.396;5.272;2022-09-02T03:40:22;6.03;;;4.00;;
14760;SDS011;7472;45.396;5.272;2022-09-02T03:42:50;6.65;;;3.65;;
14760;SDS011;7472;45.396;5.272;2022-09-02T03:45:17;4.13;;;3.47;;
14760;SDS011;7472;45.396;5.272;2022-09-02T03:47:45;3.78;;;3.47;;
14760;SDS011;7472;45.396;5.272;2022-09-02T03:50:18;4.40;;;3.88;;
14760;SDS011;7472;45.396;5.272;2022-09-02T03:52:46;4.70;;;3.20;;
14760;SDS011;7472;45.396;5.272;2022-09-02T03:55:13;3.78;;;3.47;;
14760;SDS011;7472;45.396;5.272;2022-09-02T03:57:42;4.88;;;4.10;;
14760;SDS011;7472;45.396;5.272;2022-09-02T04:00:10;3.85;;;3.55;;
14760;SDS011;7472;45.396;5.272;2022-09-02T04:02:39;4.00;;;3.63;;
14760;SDS011;7472;45.396;5.272;2022-09-02T04:05:06;5.90;;;3.70;;
14760;SDS011;7472;45.396;5.272;2022-09-02T04:07:33;4.20;;;3.80;;
14760;SDS011;7472;45.396;5.272;2022-09-02T04:10:01;4.80;;;3.50;;
14760;SDS011;7472;45.396;5.272;2022-09-02T04:12:28;4.20;;;3.88;;
14760;SDS011;7472;45.396;5.272;2022-09-02T04:14:57;3.97;;;3.67;;
14760;SDS011;7472;45.396;5.272;2022-09-02T04:17:24;5.13;;;3.40;;
14760;SDS011;7472;45.396;5.272;2022-09-02T04:19:52;7.10;;;3.72;;
14760;SDS011;7472;45.396;5.272;2022-09-02T04:22:20;3.80;;;3.40;;
14760;SDS011;7472;45.396;5.272;2022-09-02T04:24:47;4.57;;;4.18;;
14760;SDS011;7472;45.396;5.272;2022-09-02T04:27:15;5.85;;;4.00;;
14760;SDS011;7472;45.396;5.272;2022-09-02T04:29:42;4.07;;;3.75;;
14760;SDS011;7472;45.396;5.272;2022-09-02T04:32:11;5.50;;;4.10;;
14760;SDS011;7472;45.396;5.272;2022-09-02T04:34:38;8.48;;;3.90;;
14760;SDS011;7472;45.396;5.272;2022-09-02T04:37:05;4.47;;;4.07;;
14760;SDS011;7472;45.396;5.272;2022-09-02T04:39:33;3.80;;;3.40;;
14760;SDS011;7472;45.396;5.272;2022-09-02T04:42:00;5.90;;;4.13;;
14760;SDS011;7472;45.396;5.272;2022-09-02T04:44:27;4.18;;;3.85;;
14760;SDS011;7472;45.396;5.272;2022-09-02T04:46:55;4.90;;;3.78;;
14760;SDS011;7472;45.396;5.272;2022-09-02T04:49:24;5.13;;;3.80;;
14760;SDS011;7472;45.396;5.272;2022-09-02T04:51:55;7.47;;;4.38;;
14760;SDS011;7472;45.396;5.272;2022-09-02T04:54:22;5.10;;;3.60;;
14760;SDS011;7472;45.396;5.272;2022-09-02T04:56:50;5.18;;;3.95;;
14760;SDS011;7472;45.396;5.272;2022-09-02T04:59:18;4.40;;;3.85;;
14760;SDS011;7472;45.396;5.272;2022-09-02T05:01:45;6.85;;;3.58;;
14760;SDS011;7472;45.396;5.272;2022-09-02T05:04:13;3.95;;;3.63;;
14760;SDS011;7472;45.396;5.272;2022-09-02T05:06:42;4.30;;;3.85;;
14760;SDS011;7472;45.396;5.272;2022-09-02T05:09:10;4.32;;;3.63;;
14760;SDS011;7472;45.396;5.272;2022-09-02T05:11:38;4.60;;;3.60;;
14760;SDS011;7472;45.396;5.272;2022-09-02T05:14:05;4.45;;;3.65;;
14760;SDS011;7472;45.396;5.272;2022-09-02T05:16:34;5.72;;;3.63;;
14760;SDS011;7472;45.396;5.272;2022-09-02T05:19:02;3.92;;;3.63;;
14760;SDS011;7472;45.396;5.272;2022-09-02T05:21:30;4.25;;;3.88;;
14760;SDS011;7472;45.396;5.272;2022-09-02T05:23:59;5.63;;;3.88;;
14760;SDS011;7472;45.396;5.272;2022-09-02T05:26:26;3.90;;;3.60;;
14760;SDS011;7472;45.396;5.272;2022-09-02T05:28:54;4.15;;;3.75;;
14760;SDS011;7472;45.396;5.272;2022-09-02T05:31:21;4.07;;;3.67;;
14760;SDS011;7472;45.396;5.272;2022-09-02T05:33:48;5.78;;;4.20;;
14760;SDS011;7472;45.396;5.272;2022-09-02T05:36:16;5.13;;;4.22;;
14760;SDS011;7472;45.396;5.272;2022-09-02T05:38:44;5.25;;;4.13;;
14760;SDS011;7472;45.396;5.272;2022-09-02T05:41:14;3.80;;;3.50;;
14760;SDS011;7472;45.396;5.272;2022-09-02T05:43:42;4.63;;;3.40;;
14760;SDS011;7472;45.396;5.272;2022-09-02T05:46:10;4.38;;;4.00;;
14760;SDS011;7472;45.396;5.272;2022-09-02T05:48:38;5.40;;;4.05;;
14760;SDS011;7472;45.396;5.272;2022-09-02T05:51:23;4.03;;;3.63;;
14760;SDS011;7472;45.396;5.272;2022-09-02T05:53:51;6.88;;;4.10;;
14760;SDS011;7472;45.396;5.272;2022-09-02T05:56:20;4.55;;;3.78;;
14760;SDS011;7472;45.396;5.272;2022-09-02T05:58:47;4.72;;;3.67;;
14760;SDS011;7472;45.396;5.272;2022-09-02T06:01:15;4.20;;;3.60;;
14760;SDS011;7472;45.396;5.272;2022-09-02T06:03:43;3.85;;;3.55;;
14760;SDS011;7472;45.396;5.272;2022-09-02T06:06:10;3.90;;;3.60;;
14760;SDS011;7472;45.396;5.272;2022-09-02T06:08:38;4.72;;;4.07;;
14760;SDS011;7472;45.396;5.272;2022-09-02T06:11:06;4.18;;;3.78;;
14760;SDS011;7472;45.396;5.272;2022-09-02T06:13:39;5.35;;;3.75;;
14760;SDS011;7472;45.396;5.272;2022-09-02T06:16:07;3.55;;;3.30;;
14760;SDS011;7472;45.396;5.272;2022-09-02T06:18:36;4.03;;;3.65;;
14760;SDS011;7472;45.396;5.272;2022-09-02T06:21:03;4.20;;;3.80;;
14760;SDS011;7472;45.396;5.272;2022-09-02T06:23:32;5.10;;;3.30;;
14760;SDS011;7472;45.396;5.272;2022-09-02T06:26:00;3.90;;;3.50;;
14760;SDS011;7472;45.396;5.272;2022-09-02T06:28:27;4.50;;;3.70;;
14760;SDS011;7472;45.396;5.272;2022-09-02T06:30:56;3.90;;;3.42;;
14760;SDS011;7472;45.396;5.272;2022-09-02T06:33:23;8.18;;;4.13;;
14760;SDS011;7472;45.396;5.272;2022-09-02T06:35:51;4.50;;;3.63;;
14760;SDS011;7472;45.396;5.272;2022-09-02T06:38:18;3.95;;;3.63;;
14760;SDS011;7472;45.396;5.272;2022-09-02T06:40:46;5.65;;;3.90;;
14760;SDS011;7472;45.396;5.272;2022-09-02T06:43:14;5.68;;;3.60;;
14760;SDS011;7472;45.396;5.272;2022-09-02T06:45:42;4.82;;;3.50;;
14760;SDS011;7472;45.396;5.272;2022-09-02T06:48:10;4.28;;;3.88;;
14760;SDS011;7472;45.396;5.272;2022-09-02T06:50:38;6.38;;;3.83;;
14760;SDS011;7472;45.396;5.272;2022-09-02T06:53:06;4.13;;;3.72;;
14760;SDS011;7472;45.396;5.272;2022-09-02T06:55:35;9.57;;;4.13;;
14760;SDS011;7472;45.396;5.272;2022-09-02T06:58:02;4.45;;;3.40;;
14760;SDS011;7472;45.396;5.272;2022-09-02T07:00:30;3.88;;;3.35;;
14760;SDS011;7472;45.396;5.272;2022-09-02T07:02:59;4.57;;;4.20;;
14760;SDS011;7472;45.396;5.272;2022-09-02T07:05:45;6.05;;;3.50;;
14760;SDS011;7472;45.396;5.272;2022-09-02T07:08:13;4.05;;;3.65;;
14760;SDS011;7472;45.396;5.272;2022-09-02T07:10:40;3.88;;;3.58;;
14760;SDS011;7472;45.396;5.272;2022-09-02T07:13:08;3.67;;;3.38;;
14760;SDS011;7472;45.396;5.272;2022-09-02T07:15:35;3.92;;;3.50;;
14760;SDS011;7472;45.396;5.272;2022-09-02T07:18:03;3.90;;;3.47;;
14760;SDS011;7472;45.396;5.272;2022-09-02T07:20:30;5.72;;;3.38;;
14760;SDS011;7472;45.396;5.272;2022-09-02T07:22:59;3.58;;;3.25;;
14760;SDS011;7472;45.396;5.272;2022-09-02T07:25:26;5.38;;;3.20;;
14760;SDS011;7472;45.396;5.272;2022-09-02T07:27:53;5.07;;;3.90;;
14760;SDS011;7472;45.396;5.272;2022-09-02T07:30:21;5.65;;;3.40;;
14760;SDS011;7472;45.396;5.272;2022-09-02T07:32:48;4.85;;;3.25;;
14760;SDS011;7472;45.396;5.272;2022-09-02T07:35:16;5.13;;;3.65;;
14760;SDS011;7472;45.396;5.272;2022-09-02T07:37:43;3.80;;;3.50;;
14760;SDS011;7472;45.396;5.272;2022-09-02T07:40:12;3.75;;;3.45;;
14760;SDS011;7472;45.396;5.272;2022-09-02T07:42:40;5.00;;;3.35;;
14760;SDS011;7472;45.396;5.272;2022-09-02T07:45:08;6.05;;;3.83;;
14760;SDS011;7472;45.396;5.272;2022-09-02T07:47:35;3.25;;;3.05;;
14760;SDS011;7472;45.396;5.272;2022-09-02T07:50:03;4.82;;;3.67;;
14760;SDS011;7472;45.396;5.272;2022-09-02T07:52:30;4.00;;;3.67;;
14760;SDS011;7472;45.396;5.272;2022-09-02T07:54:58;8.80;;;3.50;;
14760;SDS011;7472;45.396;5.272;2022-09-02T07:57:26;4.28;;;3.20;;
14760;SDS011;7472;45.396;5.272;2022-09-02T07:59:55;5.68;;;3.63;;
14760;SDS011;7472;45.396;5.272;2022-09-02T08:02:23;4.97;;;3.17;;
14760;SDS011;7472;45.396;5.272;2022-09-02T08:04:50;4.32;;;3.13;;
14760;SDS011;7472;45.396;5.272;2022-09-02T08:07:18;5.20;;;3.67;;
14760;SDS011;7472;45.396;5.272;2022-09-02T08:09:48;4.13;;;3.72;;
14760;SDS011;7472;45.396;5.272;2022-09-02T08:12:15;4.22;;;3.65;;
14760;SDS011;7472;45.396;5.272;2022-09-02T08:14:44;5.53;;;3.75;;
14760;SDS011;7472;45.396;5.272;2022-09-02T08:17:11;4.70;;;3.60;;
14760;SDS011;7472;45.396;5.272;2022-09-02T08:19:39;4.05;;;3.65;;
14760;SDS011;7472;45.396;5.272;2022-09-02T08:22:06;3.47;;;3.10;;
14760;SDS011;7472;45.396;5.272;2022-09-02T08:24:33;5.38;;;3.60;;
14760;SDS011;7472;45.396;5.272;2022-09-02T08:27:01;5.32;;;3.60;;
14760;SDS011;7472;45.396;5.272;2022-09-02T08:29:28;7.78;;;3.55;;
14760;SDS011;7472;45.396;5.272;2022-09-02T08:31:57;3.75;;;2.90;;
14760;SDS011;7472;45.396;5.272;2022-09-02T08:34:24;3.30;;;3.00;;
14760;SDS011;7472;45.396;5.272;2022-09-02T08:36:52;5.88;;;3.10;;
14760;SDS011;7472;45.396;5.272;2022-09-02T08:39:19;3.97;;;2.83;;
14760;SDS011;7472;45.396;5.272;2022-09-02T08:41:48;5.50;;;2.95;;
14760;SDS011;7472;45.396;5.272;2022-09-02T08:44:20;3.67;;;3.10;;
14760;SDS011;7472;45.396;5.272;2022-09-02T08:46:47;3.28;;;2.80;;
14760;SDS011;7472;45.396;5.272;2022-09-02T08:49:21;6.80;;;3.28;;
14760;SDS011;7472;45.396;5.272;2022-09-02T08:51:51;4.70;;;2.97;;
14760;SDS011;7472;45.396;5.272;2022-09-02T08:54:21;7.05;;;2.95;;
14760;SDS011;7472;45.396;5.272;2022-09-02T08:56:50;3.08;;;2.78;;
14760;SDS011;7472;45.396;5.272;2022-09-02T08:59:18;3.67;;;3.13;;
14760;SDS011;7472;45.396;5.272;2022-09-02T09:01:49;4.65;;;2.83;;
14760;SDS011;7472;45.396;5.272;2022-09-02T09:04:18;4.90;;;2.97;;
14760;SDS011;7472;45.396;5.272;2022-09-02T09:09:38;8.38;;;2.33;;
14760;SDS011;7472;45.396;5.272;2022-09-02T09:12:09;5.13;;;2.88;;
14760;SDS011;7472;45.396;5.272;2022-09-02T09:14:40;4.00;;;2.90;;
14760;SDS011;7472;45.396;5.272;2022-09-02T09:17:13;9.32;;;3.30;;
14760;SDS011;7472;45.396;5.272;2022-09-02T09:19:46;4.60;;;3.03;;
14760;SDS011;7472;45.396;5.272;2022-09-02T09:22:15;5.47;;;2.47;;
14760;SDS011;7472;45.396;5.272;2022-09-02T09:24:46;4.65;;;2.92;;
14760;SDS011;7472;45.396;5.272;2022-09-02T09:27:14;5.90;;;3.05;;
14760;SDS011;7472;45.396;5.272;2022-09-02T09:29:42;5.88;;;2.80;;
14760;SDS011;7472;45.396;5.272;2022-09-02T09:32:12;6.40;;;2.30;;
14760;SDS011;7472;45.396;5.272;2022-09-02T09:34:56;4.72;;;2.58;;
14760;SDS011;7472;45.396;5.272;2022-09-02T09:37:29;4.90;;;2.38;;
14760;SDS011;7472;45.396;5.272;2022-09-02T09:39:58;4.93;;;2.83;;
14760;SDS011;7472;45.396;5.272;2022-09-02T09:42:30;4.32;;;2.30;;
14760;SDS011;7472;45.396;5.272;2022-09-02T09:44:57;2.45;;;2.13;;
14760;SDS011;7472;45.396;5.272;2022-09-02T09:47:25;4.07;;;2.47;;
14760;SDS011;7472;45.396;5.272;2022-09-02T09:50:07;4.05;;;2.53;;
14760;SDS011;7472;45.396;5.272;2022-09-02T09:52:35;4.18;;;2.53;;
14760;SDS011;7472;45.396;5.272;2022-09-02T09:55:15;3.25;;;2.40;;
14760;SDS011;7472;45.396;5.272;2022-09-02T09:57:44;2.50;;;2.13;;
14760;SDS011;7472;45.396;5.272;2022-09-02T10:00:13;4.38;;;2.75;;
14760;SDS011;7472;45.396;5.272;2022-09-02T10:02:45;3.75;;;2.47;;
14760;SDS011;7472;45.396;5.272;2022-09-02T10:05:16;3.08;;;2.50;;
14760;SDS011;7472;45.396;5.272;2022-09-02T10:07:44;2.50;;;2.30;;
14760;SDS011;7472;45.396;5.272;2022-09-02T10:10:21;2.40;;;2.15;;
14760;SDS011;7472;45.396;5.272;2022-09-02T10:12:49;5.65;;;2.35;;
14760;SDS011;7472;45.396;5.272;2022-09-02T10:15:20;2.22;;;1.92;;
14760;SDS011;7472;45.396;5.272;2022-09-02T10:17:52;3.35;;;2.40;;
14760;SDS011;7472;45.396;5.272;2022-09-02T10:20:24;4.75;;;2.35;;
14760;SDS011;7472;45.396;5.272;2022-09-02T10:23:01;4.10;;;2.60;;
14760;SDS011;7472;45.396;5.272;2022-09-02T10:25:35;2.85;;;2.10;;
14760;SDS011;7472;45.396;5.272;2022-09-02T10:28:09;2.95;;;2.45;;
14760;SDS011;7472;45.396;5.272;2022-09-02T10:30:40;4.55;;;2.60;;
14760;SDS011;7472;45.396;5.272;2022-09-02T10:33:21;2.88;;;2.67;;
14760;SDS011;7472;45.396;5.272;2022-09-02T10:35:52;5.38;;;2.40;;
14760;SDS011;7472;45.396;5.272;2022-09-02T10:38:31;3.40;;;2.92;;
14760;SDS011;7472;45.396;5.272;2022-09-02T10:41:05;5.82;;;2.55;;
14760;SDS011;7472;45.396;5.272;2022-09-02T10:43:40;2.60;;;2.22;;
14760;SDS011;7472;45.396;5.272;2022-09-02T10:46:15;4.40;;;2.38;;
14760;SDS011;7472;45.396;5.272;2022-09-02T10:48:47;4.25;;;2.95;;
14760;SDS011;7472;45.396;5.272;2022-09-02T10:51:19;2.45;;;2.25;;
14760;SDS011;7472;45.396;5.272;2022-09-02T10:53:53;2.53;;;2.30;;
14760;SDS011;7472;45.396;5.272;2022-09-02T10:56:28;5.57;;;2.47;;
14760;SDS011;7472;45.396;5.272;2022-09-02T10:58:58;3.20;;;2.90;;
14760;SDS011;7472;45.396;5.272;2022-09-02T11:01:27;4.85;;;2.92;;
14760;SDS011;7472;45.396;5.272;2022-09-02T11:04:00;2.75;;;2.55;;
14760;SDS011;7472;45.396;5.272;2022-09-02T11:06:30;2.13;;;1.92;;
14760;SDS011;7472;45.396;5.272;2022-09-02T11:09:02;4.05;;;2.85;;
14760;SDS011;7472;45.396;5.272;2022-09-02T11:11:35;4.35;;;2.72;;
14760;SDS011;7472;45.396;5.272;2022-09-02T11:14:08;4.35;;;2.25;;
14760;SDS011;7472;45.396;5.272;2022-09-02T11:16:38;4.10;;;2.45;;
14760;SDS011;7472;45.396;5.272;2022-09-02T11:19:08;2.80;;;2.22;;
14760;SDS011;7472;45.396;5.272;2022-09-02T11:21:41;5.47;;;3.17;;
14760;SDS011;7472;45.396;5.272;2022-09-02T11:24:11;3.45;;;2.60;;
14760;SDS011;7472;45.396;5.272;2022-09-02T11:26:43;2.92;;;2.72;;
14760;SDS011;7472;45.396;5.272;2022-09-02T11:29:13;3.40;;;2.58;;
14760;SDS011;7472;45.396;5.272;2022-09-02T11:31:43;3.60;;;3.25;;
14760;SDS011;7472;45.396;5.272;2022-09-02T11:34:13;4.72;;;2.90;;
14760;SDS011;7472;45.396;5.272;2022-09-02T11:36:43;3.35;;;3.05;;
14760;SDS011;7472;45.396;5.272;2022-09-02T11:39:11;3.58;;;3.28;;
14760;SDS011;7472;45.396;5.272;2022-09-02T11:41:49;3.38;;;3.08;;
14760;SDS011;7472;45.396;5.272;2022-09-02T11:44:23;5.72;;;3.53;;
14760;SDS011;7472;45.396;5.272;2022-09-02T11:46:56;3.35;;;3.05;;
14760;SDS011;7472;45.396;5.272;2022-09-02T11:49:43;8.35;;;3.15;;
14760;SDS011;7472;45.396;5.272;2022-09-02T11:52:26;3.17;;;2.88;;
14760;SDS011;7472;45.396;5.272;2022-09-02T11:55:00;3.97;;;3.03;;
14760;SDS011;7472;45.396;5.272;2022-09-02T11:57:31;3.80;;;3.22;;
14760;SDS011;7472;45.396;5.272;2022-09-02T12:00:10;4.63;;;3.47;;
14760;SDS011;7472;45.396;5.272;2022-09-02T12:02:43;3.17;;;2.97;;
14760;SDS011;7472;45.396;5.272;2022-09-02T12:08:07;3.65;;;2.97;;
14760;SDS011;7472;45.396;5.272;2022-09-02T12:10:56;5.78;;;3.00;;
14760;SDS011;7472;45.396;5.272;2022-09-02T12:13:32;4.03;;;2.90;;
14760;SDS011;7472;45.396;5.272;2022-09-02T12:19:15;4.63;;;2.80;;
14760;SDS011;7472;45.396;5.272;2022-09-02T12:22:19;5.07;;;2.72;;
14760;SDS011;7472;45.396;5.272;2022-09-02T12:24:29;4.40;;;3.10;;
14760;SDS011;7472;45.396;5.272;2022-09-02T12:27:31;6.55;;;2.88;;
14760;SDS011;7472;45.396;5.272;2022-09-02T12:30:02;9.02;;;2.90;;
14760;SDS011;7472;45.396;5.272;2022-09-02T12:35:33;7.18;;;3.42;;
14760;SDS011;7472;45.396;5.272;2022-09-02T12:38:21;5.25;;;3.13;;
14760;SDS011;7472;45.396;5.272;2022-09-02T12:40:52;5.90;;;3.03;;
14760;SDS011;7472;45.396;5.272;2022-09-02T12:43:21;3.08;;;2.78;;
14760;SDS011;7472;45.396;5.272;2022-09-02T12:45:53;3.67;;;2.60;;
14760;SDS011;7472;45.396;5.272;2022-09-02T12:48:23;3.13;;;2.80;;
14760;SDS011;7472;45.396;5.272;2022-09-02T12:50:52;2.80;;;2.60;;
14760;SDS011;7472;45.396;5.272;2022-09-02T12:53:24;2.78;;;2.58;;
14760;SDS011;7472;45.396;5.272;2022-09-02T12:55:55;3.20;;;2.50;;
14760;SDS011;7472;45.396;5.272;2022-09-02T12:58:32;3.25;;;2.60;;
14760;SDS011;7472;45.396;5.272;2022-09-02T13:01:03;2.40;;;2.20;;
14760;SDS011;7472;45.396;5.272;2022-09-02T13:03:39;4.28;;;2.95;;
14760;SDS011;7472;45.396;5.272;2022-09-02T13:06:10;2.60;;;2.38;;
14760;SDS011;7472;45.396;5.272;2022-09-02T13:08:43;5.38;;;2.70;;
14760;SDS011;7472;45.396;5.272;2022-09-02T13:11:34;2.50;;;2.28;;
14760;SDS011;7472;45.396;5.272;2022-09-02T13:16:58;4.22;;;2.75;;
14760;SDS011;7472;45.396;5.272;2022-09-02T13:19:38;3.92;;;2.70;;
14760;SDS011;7472;45.396;5.272;2022-09-02T13:22:13;2.75;;;2.50;;
14760;SDS011;7472;45.396;5.272;2022-09-02T13:27:38;3.58;;;2.75;;
14760;SDS011;7472;45.396;5.272;2022-09-02T13:30:15;3.58;;;2.45;;
14760;SDS011;7472;45.396;5.272;2022-09-02T13:32:45;5.90;;;2.92;;
14760;SDS011;7472;45.396;5.272;2022-09-02T13:35:23;3.20;;;2.53;;
14760;SDS011;7472;45.396;5.272;2022-09-02T13:37:55;3.53;;;2.50;;
14760;SDS011;7472;45.396;5.272;2022-09-02T13:40:25;5.68;;;2.45;;
14760;SDS011;7472;45.396;5.272;2022-09-02T13:42:53;4.72;;;2.67;;
14760;SDS011;7472;45.396;5.272;2022-09-02T13:45:22;5.75;;;2.55;;
14760;SDS011;7472;45.396;5.272;2022-09-02T13:47:52;4.45;;;2.80;;
14760;SDS011;7472;45.396;5.272;2022-09-02T13:50:20;2.55;;;2.28;;
14760;SDS011;7472;45.396;5.272;2022-09-02T13:52:49;3.70;;;2.33;;
14760;SDS011;7472;45.396;5.272;2022-09-02T13:55:17;3.75;;;2.42;;
14760;SDS011;7472;45.396;5.272;2022-09-02T13:57:46;2.97;;;2.22;;
14760;SDS011;7472;45.396;5.272;2022-09-02T14:00:18;2.60;;;2.42;;
14760;SDS011;7472;45.396;5.272;2022-09-02T14:02:57;4.50;;;2.65;;
14760;SDS011;7472;45.396;5.272;2022-09-02T14:05:25;3.28;;;2.40;;
14760;SDS011;7472;45.396;5.272;2022-09-02T14:07:54;4.68;;;3.05;;
14760;SDS011;7472;45.396;5.272;2022-09-02T14:10:22;3.55;;;2.70;;
14760;SDS011;7472;45.396;5.272;2022-09-02T14:12:51;2.97;;;2.63;;
14760;SDS011;7472;45.396;5.272;2022-09-02T14:15:22;3.58;;;2.70;;
14760;SDS011;7472;45.396;5.272;2022-09-02T14:20:33;7.28;;;2.75;;
14760;SDS011;7472;45.396;5.272;2022-09-02T14:23:01;3.55;;;2.53;;
14760;SDS011;7472;45.396;5.272;2022-09-02T14:25:29;4.55;;;2.58;;
14760;SDS011;7472;45.396;5.272;2022-09-02T14:27:58;5.05;;;2.72;;
14760;SDS011;7472;45.396;5.272;2022-09-02T14:30:28;2.63;;;2.42;;
14760;SDS011;7472;45.396;5.272;2022-09-02T14:35:53;3.38;;;3.00;;
14760;SDS011;7472;45.396;5.272;2022-09-02T14:38:21;2.97;;;2.70;;
14760;SDS011;7472;45.396;5.272;2022-09-02T14:40:49;2.60;;;2.40;;
14760;SDS011;7472;45.396;5.272;2022-09-02T14:43:24;5.97;;;2.30;;
14760;SDS011;7472;45.396;5.272;2022-09-02T14:46:02;3.67;;;2.70;;
14760;SDS011;7472;45.396;5.272;2022-09-02T14:48:30;2.88;;;2.65;;
14760;SDS011;7472;45.396;5.272;2022-09-02T14:51:03;3.25;;;2.42;;
14760;SDS011;7472;45.396;5.272;2022-09-02T14:53:32;2.22;;;2.03;;
14760;SDS011;7472;45.396;5.272;2022-09-02T14:56:01;3.63;;;2.22;;
14760;SDS011;7472;45.396;5.272;2022-09-02T14:58:29;3.55;;;2.67;;
14760;SDS011;7472;45.396;5.272;2022-09-02T15:00:57;2.95;;;2.60;;
14760;SDS011;7472;45.396;5.272;2022-09-02T15:03:25;2.47;;;2.28;;
14760;SDS011;7472;45.396;5.272;2022-09-02T15:05:53;2.30;;;2.00;;
14760;SDS011;7472;45.396;5.272;2022-09-02T15:08:22;3.50;;;2.50;;
14760;SDS011;7472;45.396;5.272;2022-09-02T15:10:49;3.35;;;2.00;;
14760;SDS011;7472;45.396;5.272;2022-09-02T15:13:20;4.57;;;2.00;;
14760;SDS011;7472;45.396;5.272;2022-09-02T15:15:50;2.38;;;2.03;;
14760;SDS011;7472;45.396;5.272;2022-09-02T15:18:19;3.08;;;2.67;;
14760;SDS011;7472;45.396;5.272;2022-09-02T15:20:47;4.13;;;2.60;;
14760;SDS011;7472;45.396;5.272;2022-09-02T15:23:15;2.75;;;2.40;;
14760;SDS011;7472;45.396;5.272;2022-09-02T15:25:43;2.92;;;2.55;;
14760;SDS011;7472;45.396;5.272;2022-09-02T15:28:11;3.35;;;2.70;;
14760;SDS011;7472;45.396;5.272;2022-09-02T15:30:38;3.10;;;2.65;;
14760;SDS011;7472;45.396;5.272;2022-09-02T15:33:06;2.47;;;2.35;;
14760;SDS011;7472;45.396;5.272;2022-09-02T15:35:34;3.67;;;2.28;;
14760;SDS011;7472;45.396;5.272;2022-09-02T15:38:01;6.30;;;2.88;;